createdAt,value
2022-11-02T00:00:14.871Z,39.73
2022-11-02T00:00:40.463Z,39.70
2022-11-02T00:01:12.627Z,39.59
2022-11-02T00:01:40.600Z,39.65
2022-11-02T00:02:03.993Z,39.85
2022-11-02T00:02:25.639Z,39.74
2022-11-02T00:02:47.261Z,39.54
2022-11-02T00:03:09.172Z,39.43
2022-11-02T00:03:33.319Z,39.57
2022-11-02T00:03:54.915Z,39.52
2022-11-02T00:04:16.492Z,39.66
2022-11-02T00:04:38.056Z,39.54
2022-11-02T00:05:00.608Z,39.80
2022-11-02T00:05:24.644Z,39.45
2022-11-02T00:05:46.246Z,39.77
2022-11-02T00:06:08.826Z,39.74
2022-11-02T00:06:30.381Z,39.63
2022-11-02T00:06:51.962Z,39.66
2022-11-02T00:07:13.565Z,39.62
2022-11-02T00:07:36.110Z,39.75
2022-11-02T00:07:57.823Z,39.70
2022-11-02T00:08:19.424Z,39.73
2022-11-02T00:08:41.021Z,39.70
2022-11-02T00:09:03.834Z,39.92
2022-11-02T00:09:25.393Z,39.85
2022-11-02T00:09:46.972Z,40.01
2022-11-02T00:10:09.665Z,39.81
2022-11-02T00:10:32.341Z,39.78
2022-11-02T00:10:53.908Z,39.70
2022-11-02T00:11:15.463Z,39.88
2022-11-02T00:11:37.391Z,39.65
2022-11-02T00:12:00.135Z,39.54
2022-11-02T00:12:21.743Z,39.54
2022-11-02T00:12:43.310Z,39.59
2022-11-02T00:13:05.407Z,39.48
2022-11-02T00:13:28.236Z,39.40
2022-11-02T00:13:49.774Z,39.38
2022-11-02T00:14:11.375Z,39.68
2022-11-02T00:14:32.950Z,39.39
2022-11-02T00:14:55.536Z,39.98
2022-11-02T00:15:20.193Z,39.97
2022-11-02T00:15:41.800Z,39.60
2022-11-02T00:16:05.651Z,39.66
2022-11-02T00:16:28.204Z,39.66
2022-11-02T00:16:49.931Z,39.84
2022-11-02T00:17:11.570Z,39.67
2022-11-02T00:17:34.696Z,39.98
2022-11-02T00:18:01.425Z,39.80
2022-11-02T00:18:23.177Z,40.09
2022-11-02T00:18:48.810Z,40.05
2022-11-02T00:19:10.489Z,40.02
2022-11-02T00:19:33.034Z,39.86
2022-11-02T00:19:54.618Z,39.64
2022-11-02T00:20:18.250Z,39.67
2022-11-02T00:20:41.774Z,40.15
2022-11-02T00:21:05.524Z,39.75
2022-11-02T00:21:28.096Z,39.63
2022-11-02T00:21:49.779Z,39.80
2022-11-02T00:22:11.393Z,39.50
2022-11-02T00:22:35.044Z,39.69
2022-11-02T00:22:59.047Z,39.39
2022-11-02T00:23:20.637Z,39.86
2022-11-02T00:23:43.763Z,39.72
2022-11-02T00:24:06.607Z,39.91
2022-11-02T00:24:28.324Z,39.52
2022-11-02T00:24:49.913Z,39.59
2022-11-02T00:25:14.977Z,39.66
2022-11-02T00:25:40.335Z,39.82
2022-11-02T00:26:02.927Z,39.65
2022-11-02T00:26:25.325Z,39.69
2022-11-02T00:26:46.900Z,40.02
2022-11-02T00:27:08.633Z,39.97
2022-11-02T00:27:31.751Z,40.13
2022-11-02T00:27:53.423Z,40.25
2022-11-02T00:28:15.578Z,39.75
2022-11-02T00:28:37.525Z,39.85
2022-11-02T00:29:00.424Z,40.15
2022-11-02T00:29:24.148Z,39.86
2022-11-02T00:29:45.785Z,39.69
2022-11-02T00:30:08.734Z,39.62
2022-11-02T00:30:31.542Z,39.97
2022-11-02T00:30:53.137Z,39.93
2022-11-02T00:31:14.778Z,39.59
2022-11-02T00:31:36.971Z,39.98
2022-11-02T00:32:00.103Z,40.07
2022-11-02T00:32:21.751Z,40.03
2022-11-02T00:32:43.450Z,40.19
2022-11-02T00:33:05.338Z,39.86
2022-11-02T00:33:27.916Z,40.02
2022-11-02T00:33:52.366Z,39.82
2022-11-02T00:34:13.929Z,39.81
2022-11-02T00:34:35.483Z,39.66
2022-11-02T00:34:57.074Z,39.82
2022-11-02T00:35:19.675Z,40.06
2022-11-02T00:35:41.839Z,39.62
2022-11-02T00:36:03.645Z,39.77
2022-11-02T00:36:25.293Z,39.61
2022-11-02T00:36:50.588Z,39.58
2022-11-02T00:37:15.602Z,39.76
2022-11-02T00:37:37.473Z,39.69
2022-11-02T00:37:59.063Z,39.90
2022-11-02T00:38:20.763Z,39.61
2022-11-02T00:38:42.354Z,39.39
2022-11-02T00:39:05.088Z,39.58
2022-11-02T00:39:26.618Z,40.09
2022-11-02T00:39:48.533Z,39.74
2022-11-02T00:40:11.222Z,40.02
2022-11-02T00:40:33.834Z,39.61
2022-11-02T00:40:55.513Z,39.78
2022-11-02T00:41:18.342Z,39.90
2022-11-02T00:41:40.160Z,39.50
2022-11-02T00:42:02.808Z,40.01
2022-11-02T00:42:24.546Z,39.91
2022-11-02T00:42:46.155Z,39.69
2022-11-02T00:43:07.803Z,39.94
2022-11-02T00:43:29.435Z,40.00
2022-11-02T00:43:52.056Z,40.01
2022-11-02T00:44:13.599Z,40.35
2022-11-02T00:44:35.184Z,40.30
2022-11-02T00:44:56.814Z,40.17
2022-11-02T00:45:18.618Z,39.90
2022-11-02T00:45:42.341Z,40.28
2022-11-02T00:46:04.940Z,40.09
2022-11-02T00:46:26.548Z,40.23
2022-11-02T00:46:48.291Z,40.27
2022-11-02T00:47:12.584Z,40.36
2022-11-02T00:47:34.433Z,40.40
2022-11-02T00:47:56.009Z,40.20
2022-11-02T00:48:17.593Z,40.10
2022-11-02T00:48:39.179Z,40.47
2022-11-02T00:49:03.266Z,40.30
2022-11-02T00:49:28.243Z,40.51
2022-11-02T00:49:49.939Z,40.68
2022-11-02T00:50:11.751Z,40.54
2022-11-02T00:50:35.858Z,40.44
2022-11-02T00:50:58.149Z,40.48
2022-11-02T00:51:22.997Z,40.18
2022-11-02T00:51:44.939Z,40.44
2022-11-02T00:52:11.127Z,40.44
2022-11-02T00:52:32.768Z,40.52
2022-11-02T00:52:54.799Z,40.66
2022-11-02T00:53:18.554Z,40.69
2022-11-02T00:53:46.177Z,40.83
2022-11-02T00:54:07.708Z,40.78
2022-11-02T00:54:29.320Z,40.64
2022-11-02T00:54:50.989Z,40.78
2022-11-02T00:55:15.112Z,40.76
2022-11-02T00:55:38.643Z,40.42
2022-11-02T00:56:00.218Z,40.80
2022-11-02T00:56:21.943Z,40.85
2022-11-02T00:56:44.693Z,40.77
2022-11-02T00:57:06.300Z,40.77
2022-11-02T00:57:28.022Z,40.44
2022-11-02T00:57:50.812Z,40.43
2022-11-02T00:58:13.212Z,40.41
2022-11-02T00:58:34.847Z,40.75
2022-11-02T00:58:57.682Z,40.32
2022-11-02T00:59:20.254Z,40.43
2022-11-02T00:59:41.894Z,40.75
2022-11-02T01:00:04.250Z,40.82
2022-11-02T01:00:25.816Z,40.53
2022-11-02T01:00:48.403Z,40.59
2022-11-02T01:01:10.162Z,40.50
2022-11-02T01:01:31.894Z,40.32
2022-11-02T01:01:54.540Z,40.65
2022-11-02T01:02:17.484Z,40.84
2022-11-02T01:02:39.350Z,40.55
2022-11-02T01:03:01.246Z,40.56
2022-11-02T01:03:22.883Z,40.45
2022-11-02T01:03:45.850Z,40.17
2022-11-02T01:04:08.782Z,40.68
2022-11-02T01:04:30.368Z,40.67
2022-11-02T01:04:52.047Z,40.48
2022-11-02T01:05:13.974Z,40.38
2022-11-02T01:05:37.543Z,40.51
2022-11-02T01:05:59.169Z,40.66
2022-11-02T01:06:20.738Z,40.87
2022-11-02T01:06:42.587Z,40.81
2022-11-02T01:07:04.268Z,40.51
2022-11-02T01:07:28.851Z,40.34
2022-11-02T01:07:50.412Z,40.31
2022-11-02T01:08:12.048Z,40.29
2022-11-02T01:08:33.636Z,40.37
2022-11-02T01:08:56.184Z,40.14
2022-11-02T01:09:18.334Z,40.48
2022-11-02T01:09:39.971Z,40.05
2022-11-02T01:10:02.066Z,40.51
2022-11-02T01:10:25.862Z,40.30
2022-11-02T01:10:48.572Z,40.55
2022-11-02T01:11:13.238Z,40.58
2022-11-02T01:11:34.878Z,40.74
2022-11-02T01:11:56.588Z,40.46
2022-11-02T01:12:19.226Z,40.57
2022-11-02T01:12:40.899Z,40.22
2022-11-02T01:13:05.169Z,40.37
2022-11-02T01:13:26.745Z,40.42
2022-11-02T01:13:50.262Z,40.35
2022-11-02T01:14:14.082Z,40.09
2022-11-02T01:14:36.397Z,40.29
2022-11-02T01:14:58.038Z,40.45
2022-11-02T01:15:19.787Z,40.46
2022-11-02T01:15:43.032Z,40.47
2022-11-02T01:16:05.111Z,40.42
2022-11-02T01:16:26.998Z,40.29
2022-11-02T01:16:48.901Z,40.32
2022-11-02T01:17:11.442Z,40.30
2022-11-02T01:17:33.234Z,40.76
2022-11-02T01:17:54.850Z,40.56
2022-11-02T01:18:16.490Z,40.51
2022-11-02T01:18:38.094Z,40.42
2022-11-02T01:19:02.031Z,40.78
2022-11-02T01:19:25.793Z,40.77
2022-11-02T01:19:47.497Z,40.69
2022-11-02T01:20:10.226Z,40.44
2022-11-02T01:20:33.111Z,40.68
2022-11-02T01:20:56.322Z,40.42
2022-11-02T01:21:17.871Z,40.90
2022-11-02T01:21:39.461Z,40.86
2022-11-02T01:22:01.963Z,40.94
2022-11-02T01:22:23.537Z,40.99
2022-11-02T01:22:45.069Z,40.61
2022-11-02T01:23:07.277Z,40.96
2022-11-02T01:23:32.783Z,41.11
2022-11-02T01:23:55.829Z,40.78
2022-11-02T01:24:17.397Z,40.66
2022-11-02T01:24:38.943Z,40.60
2022-11-02T01:25:01.473Z,40.51
2022-11-02T01:25:23.032Z,40.61
2022-11-02T01:25:46.853Z,40.26
2022-11-02T01:26:11.742Z,40.42
2022-11-02T01:26:34.356Z,40.80
2022-11-02T01:26:56.053Z,40.40
2022-11-02T01:27:17.623Z,40.43
2022-11-02T01:27:39.552Z,40.51
2022-11-02T01:28:02.336Z,40.91
2022-11-02T01:28:24.299Z,40.77
2022-11-02T01:28:45.973Z,40.77
2022-11-02T01:29:07.852Z,40.88
2022-11-02T01:29:29.531Z,40.51
2022-11-02T01:29:52.095Z,40.84
2022-11-02T01:30:41.835Z,40.40
2022-11-02T01:31:03.970Z,40.39
2022-11-02T01:31:26.857Z,40.25
2022-11-02T01:31:48.574Z,39.96
2022-11-02T01:32:11.981Z,40.29
2022-11-02T01:32:33.560Z,40.21
2022-11-02T01:32:56.106Z,40.18
2022-11-02T01:33:17.662Z,39.78
2022-11-02T01:33:43.446Z,40.12
2022-11-02T01:34:05.006Z,39.99
2022-11-02T01:34:28.983Z,40.01
2022-11-02T01:34:50.533Z,39.76
2022-11-02T01:35:12.116Z,39.94
2022-11-02T01:35:33.787Z,39.97
2022-11-02T01:35:55.892Z,40.14
2022-11-02T01:36:48.160Z,40.15
2022-11-02T01:37:11.793Z,40.01
2022-11-02T01:37:33.797Z,40.47
2022-11-02T01:37:56.418Z,40.14
2022-11-02T01:38:17.984Z,40.19
2022-11-02T01:38:40.787Z,40.07
2022-11-02T01:39:02.689Z,39.88
2022-11-02T01:39:24.305Z,40.26
2022-11-02T01:39:47.079Z,40.52
2022-11-02T01:40:09.716Z,40.08
2022-11-02T01:40:35.248Z,40.13
2022-11-02T01:40:56.898Z,40.01
2022-11-02T01:41:20.401Z,40.11
2022-11-02T01:41:43.197Z,40.24
2022-11-02T01:42:17.451Z,40.61
2022-11-02T01:42:39.958Z,40.07
2022-11-02T01:43:19.188Z,39.92
2022-11-02T01:43:42.404Z,40.34
2022-11-02T01:44:04.876Z,40.33
2022-11-02T01:44:29.274Z,40.43
2022-11-02T01:44:52.065Z,40.37
2022-11-02T01:45:14.272Z,40.32
2022-11-02T01:45:35.915Z,40.01
2022-11-02T01:46:01.316Z,40.37
2022-11-02T01:46:28.345Z,40.31
2022-11-02T01:46:49.996Z,40.18
2022-11-02T01:47:16.330Z,39.92
2022-11-02T01:47:41.684Z,40.22
2022-11-02T01:48:03.795Z,40.22
2022-11-02T01:48:34.825Z,40.27
2022-11-02T01:49:01.311Z,40.48
2022-11-02T01:49:24.966Z,40.26
2022-11-02T01:49:51.146Z,40.33
2022-11-02T01:50:16.770Z,40.42
2022-11-02T01:50:39.129Z,40.34
2022-11-02T01:51:06.570Z,40.56
2022-11-02T01:51:32.751Z,40.39
2022-11-02T01:51:59.753Z,40.42
2022-11-02T01:52:27.254Z,40.25
2022-11-02T01:52:48.816Z,40.57
2022-11-02T01:53:10.684Z,40.75
2022-11-02T01:53:34.751Z,40.37
2022-11-02T01:54:00.648Z,40.48
2022-11-02T01:54:25.248Z,40.83
2022-11-02T01:54:53.699Z,40.82
2022-11-02T01:55:19.306Z,40.59
2022-11-02T01:55:42.372Z,40.42
2022-11-02T01:56:05.512Z,40.48
2022-11-02T01:56:31.689Z,40.62
2022-11-02T01:56:58.054Z,40.42
2022-11-02T01:57:22.926Z,40.44
2022-11-02T01:57:49.382Z,40.34
2022-11-02T01:58:12.463Z,40.21
2022-11-02T01:58:35.155Z,40.48
2022-11-02T01:59:00.998Z,40.38
2022-11-02T01:59:28.550Z,40.47
2022-11-02T01:59:54.260Z,40.53
2022-11-02T02:00:18.029Z,40.50
2022-11-02T02:00:40.513Z,40.48
2022-11-02T02:01:02.490Z,40.60
2022-11-02T02:01:24.465Z,40.77
2022-11-02T02:01:46.371Z,40.71
2022-11-02T02:02:18.495Z,40.76
2022-11-02T02:02:45.904Z,40.49
2022-11-02T02:03:09.560Z,40.58
2022-11-02T02:03:36.167Z,40.49
2022-11-02T02:03:58.284Z,40.34
2022-11-02T02:04:21.927Z,40.69
2022-11-02T02:04:45.321Z,40.67
2022-11-02T02:05:12.009Z,40.89
2022-11-02T02:05:36.068Z,40.87
2022-11-02T02:06:02.803Z,40.99
2022-11-02T02:06:26.097Z,40.79
2022-11-02T02:06:49.215Z,40.55
2022-11-02T02:07:14.594Z,40.67
2022-11-02T02:07:38.761Z,40.97
2022-11-02T02:08:02.715Z,40.58
2022-11-02T02:08:27.053Z,40.37
2022-11-02T02:08:51.868Z,40.26
2022-11-02T02:09:14.570Z,40.37
2022-11-02T02:09:36.401Z,40.24
2022-11-02T02:09:58.643Z,40.34
2022-11-02T02:10:21.564Z,40.73
2022-11-02T02:10:43.969Z,40.22
2022-11-02T02:11:28.014Z,40.81
2022-11-02T02:11:50.560Z,40.94
2022-11-02T02:12:12.564Z,40.85
2022-11-02T02:12:36.080Z,40.71
2022-11-02T02:12:58.681Z,40.60
2022-11-02T02:13:20.306Z,41.00
2022-11-02T02:13:41.905Z,40.67
2022-11-02T02:14:06.634Z,40.80
2022-11-02T02:14:37.156Z,40.75
2022-11-02T02:14:59.716Z,40.48
2022-11-02T02:15:29.949Z,40.67
2022-11-02T02:16:00.607Z,40.99
2022-11-02T02:16:34.253Z,41.11
2022-11-02T02:17:08.005Z,41.16
2022-11-02T02:17:40.936Z,41.32
2022-11-02T02:18:12.150Z,40.81
2022-11-02T02:18:41.979Z,40.94
2022-11-02T02:19:11.113Z,40.82
2022-11-02T02:19:40.558Z,40.59
2022-11-02T02:20:08.709Z,40.96
2022-11-02T02:20:46.313Z,41.07
2022-11-02T02:21:25.294Z,41.07
2022-11-02T02:22:04.064Z,41.06
2022-11-02T02:23:11.652Z,41.08
2022-11-02T02:23:50.268Z,41.19
2022-11-02T02:24:28.406Z,41.21
2022-11-02T02:24:58.228Z,40.64
2022-11-02T02:25:32.230Z,40.81
2022-11-02T02:26:15.535Z,41.12
2022-11-02T02:27:01.769Z,41.27
2022-11-02T02:27:30.037Z,41.29
2022-11-02T02:28:06.469Z,41.27
2022-11-02T02:28:38.847Z,41.24
2022-11-02T02:29:03.383Z,41.22
2022-11-02T02:29:32.767Z,41.66
2022-11-02T02:30:05.717Z,41.47
2022-11-02T02:30:30.625Z,41.65
2022-11-02T02:30:58.523Z,41.59
2022-11-02T02:31:31.161Z,41.75
2022-11-02T02:31:59.315Z,41.75
2022-11-02T02:32:27.941Z,41.70
2022-11-02T02:32:55.826Z,41.58
2022-11-02T02:33:27.845Z,41.63
2022-11-02T02:33:57.319Z,41.55
2022-11-02T02:34:21.102Z,41.41
2022-11-02T02:34:51.346Z,41.35
2022-11-02T02:35:22.011Z,41.42
2022-11-02T02:35:46.883Z,41.38
2022-11-02T02:36:13.288Z,41.40
2022-11-02T02:36:40.759Z,41.40
2022-11-02T02:37:07.982Z,41.58
2022-11-02T02:37:36.714Z,41.40
2022-11-02T02:38:02.013Z,41.52
2022-11-02T02:38:31.189Z,41.86
2022-11-02T02:39:02.326Z,41.79
2022-11-02T02:39:28.456Z,41.54
2022-11-02T02:39:55.266Z,41.43
2022-11-02T02:40:23.062Z,41.69
2022-11-02T02:40:49.773Z,41.70
2022-11-02T02:41:14.175Z,41.44
2022-11-02T02:41:39.611Z,41.51
2022-11-02T02:42:09.088Z,41.29
2022-11-02T02:42:35.596Z,41.84
2022-11-02T02:43:06.792Z,41.76
2022-11-02T02:43:34.361Z,41.74
2022-11-02T02:43:59.642Z,41.45
2022-11-02T02:44:26.024Z,41.24
2022-11-02T02:44:53.620Z,41.28
2022-11-02T02:45:20.415Z,41.78
2022-11-02T02:45:47.401Z,41.79
2022-11-02T02:46:13.470Z,41.67
2022-11-02T02:46:42.782Z,41.77
2022-11-02T02:47:10.581Z,41.59
2022-11-02T02:47:36.037Z,41.53
2022-11-02T02:48:03.223Z,41.39
2022-11-02T02:48:26.160Z,41.66
2022-11-02T02:48:49.815Z,41.56
2022-11-02T02:49:17.472Z,42.01
2022-11-02T02:49:44.327Z,41.94
2022-11-02T02:50:10.906Z,42.01
2022-11-02T02:50:37.346Z,41.94
2022-11-02T02:51:05.279Z,42.12
2022-11-02T02:51:31.601Z,42.11
2022-11-02T02:51:55.383Z,42.09
2022-11-02T02:52:20.440Z,41.93
2022-11-02T02:52:45.024Z,42.08
2022-11-02T02:53:07.990Z,41.82
2022-11-02T02:53:38.346Z,41.82
2022-11-02T02:54:03.544Z,41.75
2022-11-02T02:54:32.292Z,42.14
2022-11-02T02:54:58.857Z,41.67
2022-11-02T02:55:25.074Z,41.96
2022-11-02T02:55:50.416Z,41.79
2022-11-02T02:56:15.366Z,42.04
2022-11-02T02:56:41.020Z,42.00
2022-11-02T02:57:09.202Z,41.89
2022-11-02T02:57:33.264Z,41.92
2022-11-02T02:57:57.187Z,41.42
2022-11-02T02:58:24.142Z,41.61
2022-11-02T02:58:51.010Z,41.60
2022-11-02T02:59:18.796Z,41.96
2022-11-02T02:59:43.338Z,41.85
2022-11-02T03:00:13.150Z,41.69
2022-11-02T03:00:36.508Z,41.63
2022-11-02T03:01:00.731Z,41.81
2022-11-02T03:01:26.055Z,41.87
2022-11-02T03:01:48.338Z,41.63
2022-11-02T03:02:15.005Z,41.65
2022-11-02T03:02:40.071Z,41.50
2022-11-02T03:03:05.440Z,41.81
2022-11-02T03:03:28.722Z,41.54
2022-11-02T03:03:50.320Z,41.60
2022-11-02T03:04:12.957Z,41.50
2022-11-02T03:04:34.573Z,41.39
2022-11-02T03:04:57.090Z,41.59
2022-11-02T03:05:24.078Z,41.57
2022-11-02T03:06:01.608Z,41.91
2022-11-02T03:06:27.714Z,41.63
2022-11-02T03:06:54.406Z,41.56
2022-11-02T03:07:20.859Z,41.33
2022-11-02T03:07:48.297Z,41.25
2022-11-02T03:08:14.114Z,41.15
2022-11-02T03:08:39.497Z,41.45
2022-11-02T03:09:09.186Z,41.14
2022-11-02T03:09:40.045Z,41.60
2022-11-02T03:10:12.637Z,41.49
2022-11-02T03:10:42.511Z,41.66
2022-11-02T03:11:12.578Z,41.67
2022-11-02T03:11:40.582Z,41.51
2022-11-02T03:12:14.558Z,41.93
2022-11-02T03:12:45.154Z,41.46
2022-11-02T03:13:28.311Z,41.46
2022-11-02T03:14:06.560Z,41.48
2022-11-02T03:14:41.401Z,41.21
2022-11-02T03:15:11.108Z,41.44
2022-11-02T03:15:41.006Z,41.47
2022-11-02T03:16:11.702Z,41.72
2022-11-02T03:16:50.743Z,41.71
2022-11-02T03:17:17.901Z,41.58
2022-11-02T03:17:51.080Z,41.60
2022-11-02T03:18:21.259Z,41.30
2022-11-02T03:18:49.291Z,41.72
2022-11-02T03:19:21.876Z,41.44
2022-11-02T03:19:51.251Z,41.68
2022-11-02T03:20:21.924Z,41.71
2022-11-02T03:20:57.115Z,41.88
2022-11-02T03:21:26.686Z,41.78
2022-11-02T03:21:55.149Z,41.50
2022-11-02T03:22:27.352Z,41.57
2022-11-02T03:22:57.463Z,41.30
2022-11-02T03:23:26.732Z,41.42
2022-11-02T03:23:54.544Z,41.39
2022-11-02T03:24:22.943Z,41.40
2022-11-02T03:24:54.689Z,41.30
2022-11-02T03:25:23.063Z,41.34
2022-11-02T03:25:55.624Z,41.57
2022-11-02T03:26:23.770Z,41.59
2022-11-02T03:26:48.993Z,41.53
2022-11-02T03:27:20.131Z,41.49
2022-11-02T03:27:51.106Z,41.38
2022-11-02T03:28:18.667Z,41.43
2022-11-02T03:28:55.605Z,41.36
2022-11-02T03:29:21.388Z,41.55
2022-11-02T03:29:52.745Z,41.64
2022-11-02T03:30:17.849Z,41.54
2022-11-02T03:30:45.766Z,41.85
2022-11-02T03:31:13.504Z,41.67
2022-11-02T03:31:41.777Z,41.68
2022-11-02T03:32:10.202Z,41.79
2022-11-02T03:32:40.157Z,41.84
2022-11-02T03:33:07.659Z,41.40
2022-11-02T03:33:35.160Z,41.32
2022-11-02T03:34:04.601Z,41.65
2022-11-02T03:34:34.765Z,41.32
2022-11-02T03:35:00.212Z,41.26
2022-11-02T03:35:31.059Z,41.27
2022-11-02T03:35:56.667Z,41.45
2022-11-02T03:36:26.702Z,41.80
2022-11-02T03:36:52.029Z,41.43
2022-11-02T03:37:18.219Z,41.68
2022-11-02T03:37:45.126Z,41.62
2022-11-02T03:38:14.453Z,41.49
2022-11-02T03:38:44.349Z,42.12
2022-11-02T03:39:08.675Z,41.64
2022-11-02T03:39:37.973Z,42.08
2022-11-02T03:40:08.398Z,41.92
2022-11-02T03:40:34.044Z,41.62
2022-11-02T03:40:56.935Z,41.78
2022-11-02T03:41:23.858Z,41.92
2022-11-02T03:41:48.227Z,41.82
2022-11-02T03:42:13.739Z,41.67
2022-11-02T03:42:36.909Z,41.63
2022-11-02T03:43:01.616Z,42.00
2022-11-02T03:43:25.031Z,41.66
2022-11-02T03:43:55.650Z,41.79
2022-11-02T03:44:22.903Z,41.76
2022-11-02T03:44:47.252Z,41.56
2022-11-02T03:45:13.400Z,42.03
2022-11-02T03:45:39.690Z,41.83
2022-11-02T03:46:03.445Z,41.78
2022-11-02T03:46:29.421Z,41.77
2022-11-02T03:46:56.903Z,41.71
2022-11-02T03:47:21.010Z,41.53
2022-11-02T03:47:46.946Z,41.45
2022-11-02T03:48:12.488Z,41.63
2022-11-02T03:48:40.361Z,42.11
2022-11-02T03:49:07.593Z,41.92
2022-11-02T03:49:31.730Z,42.22
2022-11-02T03:49:56.561Z,41.85
2022-11-02T03:50:21.522Z,42.04
2022-11-02T03:50:48.943Z,41.79
2022-11-02T03:51:15.838Z,41.73
2022-11-02T03:51:42.080Z,41.44
2022-11-02T03:52:08.691Z,41.87
2022-11-02T03:52:36.038Z,42.01
2022-11-02T03:53:01.932Z,41.93
2022-11-02T03:53:32.711Z,41.89
2022-11-02T03:53:59.291Z,42.10
2022-11-02T03:54:29.799Z,41.72
2022-11-02T03:54:58.806Z,41.92
2022-11-02T03:55:28.085Z,41.80
2022-11-02T03:55:55.772Z,42.12
2022-11-02T03:56:23.085Z,41.91
2022-11-02T03:56:49.305Z,41.98
2022-11-02T03:57:19.879Z,42.00
2022-11-02T03:57:45.597Z,42.00
2022-11-02T03:58:11.336Z,41.95
2022-11-02T03:58:35.287Z,41.94
2022-11-02T03:58:59.709Z,41.74
2022-11-02T03:59:21.576Z,41.59
2022-11-02T03:59:44.313Z,41.85
2022-11-02T04:00:08.204Z,41.81
2022-11-02T04:00:39.299Z,42.06
2022-11-02T04:01:08.263Z,41.66
2022-11-02T04:01:37.309Z,41.57
2022-11-02T04:02:01.891Z,42.14
2022-11-02T04:02:26.311Z,42.00
2022-11-02T04:02:50.382Z,41.91
2022-11-02T04:03:13.619Z,41.85
2022-11-02T04:03:43.009Z,42.07
2022-11-02T04:04:06.068Z,42.16
2022-11-02T04:04:28.366Z,41.96
2022-11-02T04:04:51.941Z,42.26
2022-11-02T04:05:16.086Z,42.16
2022-11-02T04:05:39.997Z,42.51
2022-11-02T04:06:12.899Z,42.34
2022-11-02T04:06:35.659Z,42.24
2022-11-02T04:06:57.951Z,42.09
2022-11-02T04:07:25.458Z,42.27
2022-11-02T04:08:06.567Z,42.08
2022-11-02T04:08:33.005Z,41.95
2022-11-02T04:08:57.830Z,41.94
2022-11-02T04:09:19.512Z,41.76
2022-11-02T04:09:41.375Z,41.84
2022-11-02T04:10:04.047Z,41.78
2022-11-02T04:10:25.744Z,41.83
2022-11-02T04:11:07.470Z,41.43
2022-11-02T04:11:49.492Z,41.49
2022-11-02T04:12:29.445Z,41.60
2022-11-02T04:13:09.309Z,41.47
2022-11-02T04:13:49.731Z,41.47
2022-11-02T04:14:31.504Z,41.78
2022-11-02T04:14:54.325Z,41.91
2022-11-02T04:15:16.887Z,41.55
2022-11-02T04:15:38.588Z,41.69
2022-11-02T04:16:00.174Z,41.53
2022-11-02T04:16:26.720Z,41.49
2022-11-02T04:17:11.138Z,41.40
2022-11-02T04:17:52.568Z,41.30
2022-11-02T04:18:32.956Z,40.83
2022-11-02T04:19:13.528Z,41.08
2022-11-02T04:19:35.229Z,41.02
2022-11-02T04:20:00.713Z,40.93
2022-11-02T04:20:22.248Z,41.20
2022-11-02T04:20:43.842Z,40.91
2022-11-02T04:21:06.485Z,41.19
2022-11-02T04:21:28.589Z,41.42
2022-11-02T04:22:06.688Z,41.60
2022-11-02T04:22:49.320Z,40.87
2022-11-02T04:23:29.725Z,40.84
2022-11-02T04:24:09.801Z,40.75
2022-11-02T04:24:50.166Z,40.97
2022-11-02T04:25:20.677Z,40.93
2022-11-02T04:26:01.527Z,40.99
2022-11-02T04:26:30.683Z,40.58
2022-11-02T04:26:52.266Z,40.75
2022-11-02T04:27:18.069Z,40.71
2022-11-02T04:27:43.735Z,41.00
2022-11-02T04:28:09.433Z,40.63
2022-11-02T04:28:39.875Z,40.58
2022-11-02T04:29:02.059Z,40.57
2022-11-02T04:29:26.718Z,40.70
2022-11-02T04:29:48.432Z,40.90
2022-11-02T04:30:11.019Z,40.52
2022-11-02T04:30:33.503Z,40.54
2022-11-02T04:30:58.058Z,40.51
2022-11-02T04:31:20.166Z,40.39
2022-11-02T04:31:41.834Z,40.45
2022-11-02T04:32:03.411Z,40.84
2022-11-02T04:32:43.482Z,40.52
2022-11-02T04:33:26.988Z,41.12
2022-11-02T04:33:59.685Z,40.81
2022-11-02T04:34:22.183Z,40.69
2022-11-02T04:34:43.758Z,40.65
2022-11-02T04:35:06.888Z,40.65
2022-11-02T04:35:29.390Z,40.52
2022-11-02T04:35:51.234Z,40.25
2022-11-02T04:36:14.891Z,40.20
2022-11-02T04:36:37.009Z,40.38
2022-11-02T04:36:58.612Z,40.19
2022-11-02T04:37:35.135Z,40.34
2022-11-02T04:38:16.006Z,40.50
2022-11-02T04:38:40.726Z,40.47
2022-11-02T04:39:23.551Z,40.22
2022-11-02T04:39:45.284Z,40.41
2022-11-02T04:40:07.726Z,40.12
2022-11-02T04:40:30.462Z,40.01
2022-11-02T04:41:13.015Z,39.94
2022-11-02T04:41:43.724Z,39.86
2022-11-02T04:42:19.477Z,40.16
2022-11-02T04:42:52.271Z,40.17
2022-11-02T04:43:14.894Z,40.22
2022-11-02T04:43:36.723Z,39.97
2022-11-02T04:43:58.946Z,39.87
2022-11-02T04:44:22.569Z,39.70
2022-11-02T04:44:55.849Z,39.13
2022-11-02T04:45:19.356Z,39.23
2022-11-02T04:45:41.480Z,39.00
2022-11-02T04:46:04.353Z,39.46
2022-11-02T04:46:28.373Z,39.30
2022-11-02T04:46:51.668Z,39.36
2022-11-02T04:47:15.038Z,38.84
2022-11-02T04:47:36.787Z,39.20
2022-11-02T04:48:02.189Z,39.19
2022-11-02T04:48:24.019Z,39.11
2022-11-02T04:48:46.658Z,39.24
2022-11-02T04:49:09.349Z,39.02
2022-11-02T04:49:31.885Z,38.86
2022-11-02T04:49:54.842Z,38.59
2022-11-02T04:50:17.244Z,38.79
2022-11-02T04:50:39.474Z,38.80
2022-11-02T04:51:01.038Z,38.98
2022-11-02T04:51:25.107Z,38.63
2022-11-02T04:51:49.758Z,38.80
2022-11-02T04:52:14.628Z,38.53
2022-11-02T04:52:41.248Z,38.63
2022-11-02T04:53:06.983Z,38.69
2022-11-02T04:53:28.914Z,38.72
2022-11-02T04:53:52.664Z,38.69
2022-11-02T04:54:14.613Z,38.69
2022-11-02T04:54:36.222Z,38.63
2022-11-02T04:55:01.118Z,38.87
2022-11-02T04:55:22.844Z,39.14
2022-11-02T04:55:46.374Z,38.82
2022-11-02T04:56:09.675Z,38.71
2022-11-02T04:56:32.411Z,38.62
2022-11-02T04:56:54.157Z,38.53
2022-11-02T04:57:18.977Z,38.48
2022-11-02T04:57:44.718Z,38.77
2022-11-02T04:58:07.539Z,38.61
2022-11-02T04:58:29.417Z,38.15
2022-11-02T04:58:52.031Z,38.20
2022-11-02T04:59:13.807Z,38.31
2022-11-02T04:59:35.379Z,38.31
2022-11-02T05:00:01.106Z,38.38
2022-11-02T05:00:24.901Z,38.41
2022-11-02T05:00:47.798Z,38.44
2022-11-02T05:01:14.017Z,39.00
2022-11-02T05:01:38.733Z,38.63
2022-11-02T05:02:00.768Z,38.68
2022-11-02T05:02:22.913Z,38.82
2022-11-02T05:02:46.843Z,38.81
2022-11-02T05:03:12.427Z,38.48
2022-11-02T05:03:35.989Z,38.61
2022-11-02T05:03:58.022Z,38.79
2022-11-02T05:04:21.966Z,38.55
2022-11-02T05:04:45.716Z,38.44
2022-11-02T05:05:09.293Z,38.63
2022-11-02T05:05:31.044Z,38.84
2022-11-02T05:05:54.806Z,38.92
2022-11-02T05:06:18.742Z,38.61
2022-11-02T05:06:40.464Z,38.50
2022-11-02T05:07:06.301Z,38.52
2022-11-02T05:07:29.319Z,38.34
2022-11-02T05:07:51.318Z,38.57
2022-11-02T05:08:13.916Z,38.69
2022-11-02T05:08:36.304Z,38.75
2022-11-02T05:08:57.912Z,39.00
2022-11-02T05:09:20.282Z,38.98
2022-11-02T05:09:44.163Z,38.99
2022-11-02T05:10:07.973Z,38.94
2022-11-02T05:10:30.397Z,38.70
2022-11-02T05:10:54.828Z,38.60
2022-11-02T05:11:17.665Z,38.36
2022-11-02T05:11:39.317Z,38.54
2022-11-02T05:12:01.841Z,38.52
2022-11-02T05:12:28.909Z,38.68
2022-11-02T05:12:57.682Z,38.54
2022-11-02T05:13:20.919Z,38.98
2022-11-02T05:13:44.456Z,38.70
2022-11-02T05:14:06.191Z,38.50
2022-11-02T05:14:29.111Z,38.14
2022-11-02T05:14:50.810Z,38.32
2022-11-02T05:15:13.746Z,38.48
2022-11-02T05:15:35.461Z,38.20
2022-11-02T05:16:01.751Z,38.69
2022-11-02T05:16:24.170Z,38.67
2022-11-02T05:16:48.367Z,38.52
2022-11-02T05:17:09.926Z,38.62
2022-11-02T05:17:32.883Z,38.47
2022-11-02T05:17:55.744Z,38.65
2022-11-02T05:18:19.084Z,38.38
2022-11-02T05:18:41.756Z,38.62
2022-11-02T05:19:05.681Z,38.47
2022-11-02T05:19:30.982Z,38.24
2022-11-02T05:19:55.865Z,38.42
2022-11-02T05:20:17.488Z,38.76
2022-11-02T05:20:39.188Z,39.00
2022-11-02T05:21:01.818Z,38.64
2022-11-02T05:21:25.897Z,38.71
2022-11-02T05:21:49.734Z,38.81
2022-11-02T05:22:12.280Z,38.98
2022-11-02T05:22:33.937Z,39.17
2022-11-02T05:22:56.471Z,39.22
2022-11-02T05:23:20.017Z,38.98
2022-11-02T05:23:41.800Z,39.14
2022-11-02T05:24:05.617Z,39.20
2022-11-02T05:24:28.059Z,39.36
2022-11-02T05:24:50.038Z,39.39
2022-11-02T05:25:13.003Z,39.43
2022-11-02T05:25:35.836Z,39.32
2022-11-02T05:25:59.141Z,39.58
2022-11-02T05:26:20.799Z,39.51
2022-11-02T05:26:46.006Z,39.63